sensor_id;sensor_type;location;lat;lon;timestamp;temperature;humidity
20288;DHT22;10303;51.960;8.372;2022-07-23T00:00:32;19.20;99.90
20288;DHT22;10303;51.960;8.372;2022-07-23T00:02:58;19.20;99.90
20288;DHT22;10303;51.960;8.372;2022-07-23T00:05:24;19.20;99.90
20288;DHT22;10303;51.960;8.372;2022-07-23T00:07:50;19.20;99.90
20288;DHT22;10303;51.960;8.372;2022-07-23T00:10:16;19.20;99.90
20288;DHT22;10303;51.960;8.372;2022-07-23T00:12:42;19.20;99.90
20288;DHT22;10303;51.960;8.372;2022-07-23T00:15:08;19.10;99.90
20288;DHT22;10303;51.960;8.372;2022-07-23T00:17:35;19.20;99.90
20288;DHT22;10303;51.960;8.372;2022-07-23T00:20:01;19.10;99.90
20288;DHT22;10303;51.960;8.372;2022-07-23T00:22:27;19.20;99.90
20288;DHT22;10303;51.960;8.372;2022-07-23T00:24:55;19.10;99.90
20288;DHT22;10303;51.960;8.372;2022-07-23T00:27:22;19.10;99.90
20288;DHT22;10303;51.960;8.372;2022-07-23T00:29:48;19.10;99.90
20288;DHT22;10303;51.960;8.372;2022-07-23T00:32:15;19.10;99.90
20288;DHT22;10303;51.960;8.372;2022-07-23T00:34:41;19.10;99.90
20288;DHT22;10303;51.960;8.372;2022-07-23T00:37:08;19.10;99.90
20288;DHT22;10303;51.960;8.372;2022-07-23T00:39:35;19.10;99.90
20288;DHT22;10303;51.960;8.372;2022-07-23T00:42:01;19.10;99.90
20288;DHT22;10303;51.960;8.372;2022-07-23T00:44:28;19.10;99.90
20288;DHT22;10303;51.960;8.372;2022-07-23T00:46:57;19.10;99.90
20288;DHT22;10303;51.960;8.372;2022-07-23T00:49:26;19.10;99.90
20288;DHT22;10303;51.960;8.372;2022-07-23T00:51:54;19.10;99.90
20288;DHT22;10303;51.960;8.372;2022-07-23T00:54:23;19.10;99.90
20288;DHT22;10303;51.960;8.372;2022-07-23T00:56:51;19.10;99.90
20288;DHT22;10303;51.960;8.372;2022-07-23T00:59:17;19.10;99.90
20288;DHT22;10303;51.960;8.372;2022-07-23T01:01:43;19.10;99.90
20288;DHT22;10303;51.960;8.372;2022-07-23T01:04:15;19.10;99.90
20288;DHT22;10303;51.960;8.372;2022-07-23T01:06:43;19.10;99.90
20288;DHT22;10303;51.960;8.372;2022-07-23T01:09:11;19.10;99.90
20288;DHT22;10303;51.960;8.372;2022-07-23T01:11:38;19.10;99.90
20288;DHT22;10303;51.960;8.372;2022-07-23T01:14:11;19.10;99.90
20288;DHT22;10303;51.960;8.372;2022-07-23T01:16:38;19.10;99.90
20288;DHT22;10303;51.960;8.372;2022-07-23T01:19:05;19.10;99.90
20288;DHT22;10303;51.960;8.372;2022-07-23T01:21:35;19.10;99.90
20288;DHT22;10303;51.960;8.372;2022-07-23T01:24:04;19.10;99.90
20288;DHT22;10303;51.960;8.372;2022-07-23T01:26:32;19.20;99.90
20288;DHT22;10303;51.960;8.372;2022-07-23T01:28:58;19.20;99.90
20288;DHT22;10303;51.960;8.372;2022-07-23T01:31:26;19.20;99.90
20288;DHT22;10303;51.960;8.372;2022-07-23T01:33:52;19.20;99.90
20288;DHT22;10303;51.960;8.372;2022-07-23T01:36:19;19.20;99.90
20288;DHT22;10303;51.960;8.372;2022-07-23T01:38:45;19.20;99.90
20288;DHT22;10303;51.960;8.372;2022-07-23T01:41:11;19.20;99.90
20288;DHT22;10303;51.960;8.372;2022-07-23T01:43:37;19.20;99.90
20288;DHT22;10303;51.960;8.372;2022-07-23T01:46:03;19.10;99.90
20288;DHT22;10303;51.960;8.372;2022-07-23T01:48:36;19.20;99.90
20288;DHT22;10303;51.960;8.372;2022-07-23T01:51:37;19.10;99.90
20288;DHT22;10303;51.960;8.372;2022-07-23T01:54:23;19.20;99.90
20288;DHT22;10303;51.960;8.372;2022-07-23T01:56:49;19.20;99.90
20288;DHT22;10303;51.960;8.372;2022-07-23T01:59:15;19.10;99.90
20288;DHT22;10303;51.960;8.372;2022-07-23T02:01:41;19.10;99.90
20288;DHT22;10303;51.960;8.372;2022-07-23T02:04:07;19.10;99.90
20288;DHT22;10303;51.960;8.372;2022-07-23T02:06:33;19.10;99.90
20288;DHT22;10303;51.960;8.372;2022-07-23T02:08:59;19.10;99.90
20288;DHT22;10303;51.960;8.372;2022-07-23T02:11:25;19.10;99.90
20288;DHT22;10303;51.960;8.372;2022-07-23T02:13:52;19.10;99.90
20288;DHT22;10303;51.960;8.372;2022-07-23T02:16:20;19.10;99.90
20288;DHT22;10303;51.960;8.372;2022-07-23T02:18:46;19.10;99.90
20288;DHT22;10303;51.960;8.372;2022-07-23T02:21:13;19.10;99.90
20288;DHT22;10303;51.960;8.372;2022-07-23T02:23:38;19.10;99.90
20288;DHT22;10303;51.960;8.372;2022-07-23T02:26:05;19.00;99.90
20288;DHT22;10303;51.960;8.372;2022-07-23T02:28:32;19.00;99.90
20288;DHT22;10303;51.960;8.372;2022-07-23T02:30:58;19.00;99.90
20288;DHT22;10303;51.960;8.372;2022-07-23T02:33:24;19.00;99.90
20288;DHT22;10303;51.960;8.372;2022-07-23T02:35:50;19.00;99.90
20288;DHT22;10303;51.960;8.372;2022-07-23T02:38:18;19.00;99.90
20288;DHT22;10303;51.960;8.372;2022-07-23T02:40:45;19.00;99.90
20288;DHT22;10303;51.960;8.372;2022-07-23T02:43:11;19.00;99.90
20288;DHT22;10303;51.960;8.372;2022-07-23T02:45:38;19.00;99.90
20288;DHT22;10303;51.960;8.372;2022-07-23T02:48:04;19.00;99.90
20288;DHT22;10303;51.960;8.372;2022-07-23T02:50:30;19.00;99.90
20288;DHT22;10303;51.960;8.372;2022-07-23T02:52:58;19.00;99.90
20288;DHT22;10303;51.960;8.372;2022-07-23T02:55:24;18.90;99.90
20288;DHT22;10303;51.960;8.372;2022-07-23T02:57:51;19.00;99.90
20288;DHT22;10303;51.960;8.372;2022-07-23T03:00:18;18.90;99.90
20288;DHT22;10303;51.960;8.372;2022-07-23T03:02:44;18.90;99.90
20288;DHT22;10303;51.960;8.372;2022-07-23T03:05:10;18.90;99.90
20288;DHT22;10303;51.960;8.372;2022-07-23T03:07:37;18.90;99.90
20288;DHT22;10303;51.960;8.372;2022-07-23T03:10:04;18.90;99.90
20288;DHT22;10303;51.960;8.372;2022-07-23T03:12:30;18.90;99.90
20288;DHT22;10303;51.960;8.372;2022-07-23T03:14:56;18.90;99.90
20288;DHT22;10303;51.960;8.372;2022-07-23T03:17:22;18.90;99.90
20288;DHT22;10303;51.960;8.372;2022-07-23T03:19:48;18.90;99.90
20288;DHT22;10303;51.960;8.372;2022-07-23T03:22:14;18.90;99.90
20288;DHT22;10303;51.960;8.372;2022-07-23T03:24:40;18.90;99.90
20288;DHT22;10303;51.960;8.372;2022-07-23T03:27:25;18.90;99.90
20288;DHT22;10303;51.960;8.372;2022-07-23T03:29:55;18.90;99.90
20288;DHT22;10303;51.960;8.372;2022-07-23T03:32:24;18.80;99.90
20288;DHT22;10303;51.960;8.372;2022-07-23T03:34:51;18.80;99.90
20288;DHT22;10303;51.960;8.372;2022-07-23T03:37:18;18.80;99.90
20288;DHT22;10303;51.960;8.372;2022-07-23T03:39:45;18.80;99.90
20288;DHT22;10303;51.960;8.372;2022-07-23T03:42:11;18.80;99.90
20288;DHT22;10303;51.960;8.372;2022-07-23T03:44:37;18.80;99.90
20288;DHT22;10303;51.960;8.372;2022-07-23T03:47:04;18.80;99.90
20288;DHT22;10303;51.960;8.372;2022-07-23T03:49:32;18.70;99.90
20288;DHT22;10303;51.960;8.372;2022-07-23T03:51:58;18.70;99.90
20288;DHT22;10303;51.960;8.372;2022-07-23T03:54:25;18.70;99.90
20288;DHT22;10303;51.960;8.372;2022-07-23T03:56:52;18.70;99.90
20288;DHT22;10303;51.960;8.372;2022-07-23T03:59:18;18.70;99.90
20288;DHT22;10303;51.960;8.372;2022-07-23T04:01:44;18.60;99.90
20288;DHT22;10303;51.960;8.372;2022-07-23T04:04:10;18.60;99.90
20288;DHT22;10303;51.960;8.372;2022-07-23T04:06:39;18.60;99.90
20288;DHT22;10303;51.960;8.372;2022-07-23T04:09:05;18.60;99.90
20288;DHT22;10303;51.960;8.372;2022-07-23T04:11:32;18.60;99.90
20288;DHT22;10303;51.960;8.372;2022-07-23T04:13:58;18.50;99.90
20288;DHT22;10303;51.960;8.372;2022-07-23T04:16:24;18.50;99.90
20288;DHT22;10303;51.960;8.372;2022-07-23T04:18:50;18.50;99.90
20288;DHT22;10303;51.960;8.372;2022-07-23T04:21:20;18.50;99.90
20288;DHT22;10303;51.960;8.372;2022-07-23T04:23:46;18.40;99.90
20288;DHT22;10303;51.960;8.372;2022-07-23T04:26:13;18.40;99.90
20288;DHT22;10303;51.960;8.372;2022-07-23T04:28:39;18.40;99.90
20288;DHT22;10303;51.960;8.372;2022-07-23T04:31:05;18.40;99.90
20288;DHT22;10303;51.960;8.372;2022-07-23T04:33:33;18.30;99.90
20288;DHT22;10303;51.960;8.372;2022-07-23T04:36:04;18.30;99.90
20288;DHT22;10303;51.960;8.372;2022-07-23T04:38:30;18.30;99.90
20288;DHT22;10303;51.960;8.372;2022-07-23T04:41:00;18.30;99.90
20288;DHT22;10303;51.960;8.372;2022-07-23T04:43:26;18.30;99.90
20288;DHT22;10303;51.960;8.372;2022-07-23T04:45:53;18.20;99.90
20288;DHT22;10303;51.960;8.372;2022-07-23T04:48:19;18.20;99.90
20288;DHT22;10303;51.960;8.372;2022-07-23T04:50:48;18.20;99.90
20288;DHT22;10303;51.960;8.372;2022-07-23T04:53:17;18.20;99.90
20288;DHT22;10303;51.960;8.372;2022-07-23T04:55:44;18.20;99.90
20288;DHT22;10303;51.960;8.372;2022-07-23T04:58:10;18.20;99.90
20288;DHT22;10303;51.960;8.372;2022-07-23T05:00:36;18.20;99.90
20288;DHT22;10303;51.960;8.372;2022-07-23T05:03:02;18.20;99.90
20288;DHT22;10303;51.960;8.372;2022-07-23T05:05:28;18.20;99.90
20288;DHT22;10303;51.960;8.372;2022-07-23T05:08:04;18.20;99.90
20288;DHT22;10303;51.960;8.372;2022-07-23T05:10:31;18.20;99.90
20288;DHT22;10303;51.960;8.372;2022-07-23T05:12:57;18.20;99.90
20288;DHT22;10303;51.960;8.372;2022-07-23T05:15:23;18.20;99.90
20288;DHT22;10303;51.960;8.372;2022-07-23T05:17:49;18.20;99.90
20288;DHT22;10303;51.960;8.372;2022-07-23T05:20:17;18.20;99.90
20288;DHT22;10303;51.960;8.372;2022-07-23T05:22:43;18.30;99.90
20288;DHT22;10303;51.960;8.372;2022-07-23T05:25:09;18.30;99.90
20288;DHT22;10303;51.960;8.372;2022-07-23T05:27:35;18.30;99.90
20288;DHT22;10303;51.960;8.372;2022-07-23T05:30:01;18.30;99.90
20288;DHT22;10303;51.960;8.372;2022-07-23T05:32:31;18.30;99.90
20288;DHT22;10303;51.960;8.372;2022-07-23T05:35:07;18.40;99.90
20288;DHT22;10303;51.960;8.372;2022-07-23T05:37:37;18.50;99.90
20288;DHT22;10303;51.960;8.372;2022-07-23T05:40:06;18.50;99.90
20288;DHT22;10303;51.960;8.372;2022-07-23T05:42:39;18.50;99.90
20288;DHT22;10303;51.960;8.372;2022-07-23T05:45:07;18.50;99.90
20288;DHT22;10303;51.960;8.372;2022-07-23T05:47:54;18.60;99.90
20288;DHT22;10303;51.960;8.372;2022-07-23T05:50:26;18.60;99.90
20288;DHT22;10303;51.960;8.372;2022-07-23T05:53:00;18.60;99.90
20288;DHT22;10303;51.960;8.372;2022-07-23T05:55:49;18.70;99.90
20288;DHT22;10303;51.960;8.372;2022-07-23T05:58:15;18.70;99.90
20288;DHT22;10303;51.960;8.372;2022-07-23T06:00:41;18.80;99.90
20288;DHT22;10303;51.960;8.372;2022-07-23T06:03:06;18.80;99.90
20288;DHT22;10303;51.960;8.372;2022-07-23T06:05:32;18.80;99.90
20288;DHT22;10303;51.960;8.372;2022-07-23T06:07:58;18.90;99.90
20288;DHT22;10303;51.960;8.372;2022-07-23T06:10:25;18.90;99.90
20288;DHT22;10303;51.960;8.372;2022-07-23T06:12:51;19.00;99.90
20288;DHT22;10303;51.960;8.372;2022-07-23T06:15:18;19.00;99.90
20288;DHT22;10303;51.960;8.372;2022-07-23T06:17:44;19.10;99.90
20288;DHT22;10303;51.960;8.372;2022-07-23T06:20:10;19.10;99.90
20288;DHT22;10303;51.960;8.372;2022-07-23T06:22:38;19.10;99.90
20288;DHT22;10303;51.960;8.372;2022-07-23T06:25:05;19.20;99.90
20288;DHT22;10303;51.960;8.372;2022-07-23T06:27:32;19.20;99.90
20288;DHT22;10303;51.960;8.372;2022-07-23T06:29:58;19.20;99.90
20288;DHT22;10303;51.960;8.372;2022-07-23T06:32:24;19.30;99.90
20288;DHT22;10303;51.960;8.372;2022-07-23T06:34:50;19.40;99.90
20288;DHT22;10303;51.960;8.372;2022-07-23T06:37:16;19.40;99.90
20288;DHT22;10303;51.960;8.372;2022-07-23T06:39:42;19.40;99.90
20288;DHT22;10303;51.960;8.372;2022-07-23T06:42:08;19.50;99.90
20288;DHT22;10303;51.960;8.372;2022-07-23T06:44:38;19.50;99.90
20288;DHT22;10303;51.960;8.372;2022-07-23T06:47:07;19.50;99.90
20288;DHT22;10303;51.960;8.372;2022-07-23T06:49:33;19.60;99.90
20288;DHT22;10303;51.960;8.372;2022-07-23T06:51:59;19.60;99.90
20288;DHT22;10303;51.960;8.372;2022-07-23T06:54:25;19.60;99.90
20288;DHT22;10303;51.960;8.372;2022-07-23T06:56:51;19.70;99.90
20288;DHT22;10303;51.960;8.372;2022-07-23T06:59:17;19.70;99.90
20288;DHT22;10303;51.960;8.372;2022-07-23T07:01:43;19.70;99.90
20288;DHT22;10303;51.960;8.372;2022-07-23T07:04:08;19.80;99.90
20288;DHT22;10303;51.960;8.372;2022-07-23T07:06:34;19.80;99.90
20288;DHT22;10303;51.960;8.372;2022-07-23T07:09:00;19.90;99.90
20288;DHT22;10303;51.960;8.372;2022-07-23T07:11:26;19.90;99.90
20288;DHT22;10303;51.960;8.372;2022-07-23T07:13:52;19.90;99.90
20288;DHT22;10303;51.960;8.372;2022-07-23T07:16:18;20.00;99.90
20288;DHT22;10303;51.960;8.372;2022-07-23T07:18:44;19.90;99.90
20288;DHT22;10303;51.960;8.372;2022-07-23T07:21:10;20.00;99.90
20288;DHT22;10303;51.960;8.372;2022-07-23T07:23:37;20.00;99.90
20288;DHT22;10303;51.960;8.372;2022-07-23T07:26:03;20.10;99.90
20288;DHT22;10303;51.960;8.372;2022-07-23T07:28:28;20.10;99.90
20288;DHT22;10303;51.960;8.372;2022-07-23T07:30:55;20.20;99.90
20288;DHT22;10303;51.960;8.372;2022-07-23T07:33:21;20.20;99.90
20288;DHT22;10303;51.960;8.372;2022-07-23T07:35:47;20.30;99.90
20288;DHT22;10303;51.960;8.372;2022-07-23T07:38:13;20.30;99.90
20288;DHT22;10303;51.960;8.372;2022-07-23T07:40:39;20.40;99.90
20288;DHT22;10303;51.960;8.372;2022-07-23T07:43:05;20.50;99.90
20288;DHT22;10303;51.960;8.372;2022-07-23T07:45:31;20.50;99.90
20288;DHT22;10303;51.960;8.372;2022-07-23T07:47:58;20.50;99.90
20288;DHT22;10303;51.960;8.372;2022-07-23T07:50:24;20.50;99.90
20288;DHT22;10303;51.960;8.372;2022-07-23T07:52:50;20.60;99.90
20288;DHT22;10303;51.960;8.372;2022-07-23T07:55:16;20.70;99.90
20288;DHT22;10303;51.960;8.372;2022-07-23T07:57:42;20.70;99.90
20288;DHT22;10303;51.960;8.372;2022-07-23T08:00:09;20.90;99.90
20288;DHT22;10303;51.960;8.372;2022-07-23T08:02:42;20.90;99.90
20288;DHT22;10303;51.960;8.372;2022-07-23T08:05:10;21.00;99.90
20288;DHT22;10303;51.960;8.372;2022-07-23T08:07:37;21.10;99.90
20288;DHT22;10303;51.960;8.372;2022-07-23T08:10:07;21.10;99.90
20288;DHT22;10303;51.960;8.372;2022-07-23T08:12:42;21.20;99.90
20288;DHT22;10303;51.960;8.372;2022-07-23T08:15:14;21.30;99.90
20288;DHT22;10303;51.960;8.372;2022-07-23T08:17:42;21.40;99.90
20288;DHT22;10303;51.960;8.372;2022-07-23T08:20:10;21.50;99.90
20288;DHT22;10303;51.960;8.372;2022-07-23T08:25:19;21.70;99.90
20288;DHT22;10303;51.960;8.372;2022-07-23T08:27:46;21.80;99.90
20288;DHT22;10303;51.960;8.372;2022-07-23T08:30:13;21.80;99.90
20288;DHT22;10303;51.960;8.372;2022-07-23T08:32:52;21.90;99.90
20288;DHT22;10303;51.960;8.372;2022-07-23T08:35:22;22.00;99.90
20288;DHT22;10303;51.960;8.372;2022-07-23T08:37:53;22.20;99.90
20288;DHT22;10303;51.960;8.372;2022-07-23T08:40:20;22.30;99.90
20288;DHT22;10303;51.960;8.372;2022-07-23T08:42:48;22.40;99.90
20288;DHT22;10303;51.960;8.372;2022-07-23T08:45:18;22.50;99.90
20288;DHT22;10303;51.960;8.372;2022-07-23T08:47:50;22.60;99.90
20288;DHT22;10303;51.960;8.372;2022-07-23T08:50:17;22.60;99.90
20288;DHT22;10303;51.960;8.372;2022-07-23T08:52:43;22.70;99.90
20288;DHT22;10303;51.960;8.372;2022-07-23T08:55:09;22.80;99.90
20288;DHT22;10303;51.960;8.372;2022-07-23T08:57:35;22.90;99.90
20288;DHT22;10303;51.960;8.372;2022-07-23T09:00:04;22.90;99.90
20288;DHT22;10303;51.960;8.372;2022-07-23T09:02:39;23.10;99.90
20288;DHT22;10303;51.960;8.372;2022-07-23T09:05:07;23.30;99.90
20288;DHT22;10303;51.960;8.372;2022-07-23T09:07:33;23.40;99.90
20288;DHT22;10303;51.960;8.372;2022-07-23T09:10:08;23.40;99.90
20288;DHT22;10303;51.960;8.372;2022-07-23T09:12:37;23.60;99.90
20288;DHT22;10303;51.960;8.372;2022-07-23T09:15:06;23.70;99.90
20288;DHT22;10303;51.960;8.372;2022-07-23T09:17:41;23.80;99.90
20288;DHT22;10303;51.960;8.372;2022-07-23T09:20:17;23.90;99.90
20288;DHT22;10303;51.960;8.372;2022-07-23T09:22:47;24.00;99.90
20288;DHT22;10303;51.960;8.372;2022-07-23T09:25:16;24.10;99.90
20288;DHT22;10303;51.960;8.372;2022-07-23T09:30:22;24.30;99.90
20288;DHT22;10303;51.960;8.372;2022-07-23T09:33:16;24.40;99.90
20288;DHT22;10303;51.960;8.372;2022-07-23T09:35:45;24.40;97.70
20288;DHT22;10303;51.960;8.372;2022-07-23T09:38:16;24.50;99.40
20288;DHT22;10303;51.960;8.372;2022-07-23T09:40:44;24.40;98.60
20288;DHT22;10303;51.960;8.372;2022-07-23T09:43:11;24.20;97.20
20288;DHT22;10303;51.960;8.372;2022-07-23T09:45:37;24.30;99.10
20288;DHT22;10303;51.960;8.372;2022-07-23T09:48:14;24.40;99.00
20288;DHT22;10303;51.960;8.372;2022-07-23T09:50:42;24.50;99.30
20288;DHT22;10303;51.960;8.372;2022-07-23T09:53:23;24.60;99.20
20288;DHT22;10303;51.960;8.372;2022-07-23T09:55:52;24.60;99.50
20288;DHT22;10303;51.960;8.372;2022-07-23T09:58:25;24.70;98.70
20288;DHT22;10303;51.960;8.372;2022-07-23T10:00:53;24.80;98.70
20288;DHT22;10303;51.960;8.372;2022-07-23T10:03:20;24.70;98.20
20288;DHT22;10303;51.960;8.372;2022-07-23T10:06:09;24.80;97.20
20288;DHT22;10303;51.960;8.372;2022-07-23T10:09:08;24.70;95.40
20288;DHT22;10303;51.960;8.372;2022-07-23T10:12:14;24.60;96.50
20288;DHT22;10303;51.960;8.372;2022-07-23T10:14:59;24.80;97.20
20288;DHT22;10303;51.960;8.372;2022-07-23T10:17:28;24.90;96.80
20288;DHT22;10303;51.960;8.372;2022-07-23T10:19:54;25.10;98.00
20288;DHT22;10303;51.960;8.372;2022-07-23T10:22:34;25.20;97.10
20288;DHT22;10303;51.960;8.372;2022-07-23T10:25:13;25.20;93.90
20288;DHT22;10303;51.960;8.372;2022-07-23T10:27:59;25.30;94.80
20288;DHT22;10303;51.960;8.372;2022-07-23T10:33:30;25.50;96.40
20288;DHT22;10303;51.960;8.372;2022-07-23T10:39:15;25.90;97.20
20288;DHT22;10303;51.960;8.372;2022-07-23T10:41:47;26.20;96.80
20288;DHT22;10303;51.960;8.372;2022-07-23T10:44:21;26.50;97.20
20288;DHT22;10303;51.960;8.372;2022-07-23T10:47:00;26.70;93.70
20288;DHT22;10303;51.960;8.372;2022-07-23T10:49:36;26.90;92.00
20288;DHT22;10303;51.960;8.372;2022-07-23T10:54:54;27.10;91.30
20288;DHT22;10303;51.960;8.372;2022-07-23T10:57:27;27.30;90.90
20288;DHT22;10303;51.960;8.372;2022-07-23T11:02:35;27.50;90.00
20288;DHT22;10303;51.960;8.372;2022-07-23T11:05:42;27.60;87.70
20288;DHT22;10303;51.960;8.372;2022-07-23T11:08:15;27.70;89.60
20288;DHT22;10303;51.960;8.372;2022-07-23T11:10:54;27.60;85.90
20288;DHT22;10303;51.960;8.372;2022-07-23T11:13:38;27.50;87.80
20288;DHT22;10303;51.960;8.372;2022-07-23T11:16:19;27.60;90.10
20288;DHT22;10303;51.960;8.372;2022-07-23T11:18:52;27.60;84.60
20288;DHT22;10303;51.960;8.372;2022-07-23T11:23:59;27.60;82.80
20288;DHT22;10303;51.960;8.372;2022-07-23T11:26:42;27.70;85.60
20288;DHT22;10303;51.960;8.372;2022-07-23T11:37:06;27.90;78.50
20288;DHT22;10303;51.960;8.372;2022-07-23T11:39:34;28.10;82.30
20288;DHT22;10303;51.960;8.372;2022-07-23T11:42:02;28.20;81.80
20288;DHT22;10303;51.960;8.372;2022-07-23T11:44:34;28.30;82.00
20288;DHT22;10303;51.960;8.372;2022-07-23T11:47:04;28.40;84.60
20288;DHT22;10303;51.960;8.372;2022-07-23T11:49:35;28.60;85.10
20288;DHT22;10303;51.960;8.372;2022-07-23T11:52:06;28.70;82.00
20288;DHT22;10303;51.960;8.372;2022-07-23T11:54:47;28.90;83.00
20288;DHT22;10303;51.960;8.372;2022-07-23T11:57:41;28.90;83.20
20288;DHT22;10303;51.960;8.372;2022-07-23T12:00:19;29.00;80.00
20288;DHT22;10303;51.960;8.372;2022-07-23T12:02:49;29.20;76.60
20288;DHT22;10303;51.960;8.372;2022-07-23T12:05:22;29.30;79.60
20288;DHT22;10303;51.960;8.372;2022-07-23T12:07:51;29.40;78.10
20288;DHT22;10303;51.960;8.372;2022-07-23T12:10:34;29.50;78.70
20288;DHT22;10303;51.960;8.372;2022-07-23T12:13:06;29.60;77.10
20288;DHT22;10303;51.960;8.372;2022-07-23T12:15:44;29.80;76.50
20288;DHT22;10303;51.960;8.372;2022-07-23T12:18:15;29.90;77.60
20288;DHT22;10303;51.960;8.372;2022-07-23T12:20:58;30.00;70.30
20288;DHT22;10303;51.960;8.372;2022-07-23T12:23:29;29.90;69.90
20288;DHT22;10303;51.960;8.372;2022-07-23T12:26:01;30.00;72.40
20288;DHT22;10303;51.960;8.372;2022-07-23T12:28:30;30.10;73.70
20288;DHT22;10303;51.960;8.372;2022-07-23T12:31:03;30.20;73.60
20288;DHT22;10303;51.960;8.372;2022-07-23T12:33:34;30.30;73.50
20288;DHT22;10303;51.960;8.372;2022-07-23T12:36:08;30.30;70.80
20288;DHT22;10303;51.960;8.372;2022-07-23T12:38:48;30.40;68.30
20288;DHT22;10303;51.960;8.372;2022-07-23T12:41:15;30.40;70.60
20288;DHT22;10303;51.960;8.372;2022-07-23T12:43:44;30.40;70.60
20288;DHT22;10303;51.960;8.372;2022-07-23T12:46:15;30.40;69.70
20288;DHT22;10303;51.960;8.372;2022-07-23T12:53:49;30.30;67.60
20288;DHT22;10303;51.960;8.372;2022-07-23T12:56:20;30.30;67.90
20288;DHT22;10303;51.960;8.372;2022-07-23T13:01:37;30.50;67.90
20288;DHT22;10303;51.960;8.372;2022-07-23T13:04:12;30.50;70.20
20288;DHT22;10303;51.960;8.372;2022-07-23T13:06:51;30.70;70.70
20288;DHT22;10303;51.960;8.372;2022-07-23T13:09:21;30.80;70.50
20288;DHT22;10303;51.960;8.372;2022-07-23T13:11:52;30.90;66.60
20288;DHT22;10303;51.960;8.372;2022-07-23T13:14:20;30.90;67.40
20288;DHT22;10303;51.960;8.372;2022-07-23T13:16:50;30.90;64.80
20288;DHT22;10303;51.960;8.372;2022-07-23T13:19:18;30.80;62.10
20288;DHT22;10303;51.960;8.372;2022-07-23T13:21:47;30.90;65.50
20288;DHT22;10303;51.960;8.372;2022-07-23T13:24:13;30.90;66.70
20288;DHT22;10303;51.960;8.372;2022-07-23T13:26:40;31.00;66.80
20288;DHT22;10303;51.960;8.372;2022-07-23T13:29:07;31.10;65.60
20288;DHT22;10303;51.960;8.372;2022-07-23T13:31:35;31.10;64.80
20288;DHT22;10303;51.960;8.372;2022-07-23T13:34:03;31.10;63.70
20288;DHT22;10303;51.960;8.372;2022-07-23T13:36:29;31.10;64.40
20288;DHT22;10303;51.960;8.372;2022-07-23T13:38:55;31.10;62.50
20288;DHT22;10303;51.960;8.372;2022-07-23T13:41:21;31.20;62.20
20288;DHT22;10303;51.960;8.372;2022-07-23T13:43:47;31.20;63.10
20288;DHT22;10303;51.960;8.372;2022-07-23T13:46:13;31.20;61.10
20288;DHT22;10303;51.960;8.372;2022-07-23T13:48:39;31.10;59.90
20288;DHT22;10303;51.960;8.372;2022-07-23T13:51:05;31.10;60.60
20288;DHT22;10303;51.960;8.372;2022-07-23T13:53:33;31.10;60.80
20288;DHT22;10303;51.960;8.372;2022-07-23T13:55:58;31.10;60.30
20288;DHT22;10303;51.960;8.372;2022-07-23T13:58:24;31.10;60.10
20288;DHT22;10303;51.960;8.372;2022-07-23T14:00:52;31.20;61.00
20288;DHT22;10303;51.960;8.372;2022-07-23T14:03:20;31.10;59.30
20288;DHT22;10303;51.960;8.372;2022-07-23T14:05:51;31.00;58.60
20288;DHT22;10303;51.960;8.372;2022-07-23T14:08:18;30.90;58.80
20288;DHT22;10303;51.960;8.372;2022-07-23T14:10:44;30.80;59.50
20288;DHT22;10303;51.960;8.372;2022-07-23T14:13:10;30.80;59.50
20288;DHT22;10303;51.960;8.372;2022-07-23T14:15:36;30.60;58.70
20288;DHT22;10303;51.960;8.372;2022-07-23T14:18:06;30.50;59.00
20288;DHT22;10303;51.960;8.372;2022-07-23T14:20:33;30.40;59.20
20288;DHT22;10303;51.960;8.372;2022-07-23T14:22:59;30.30;59.90
20288;DHT22;10303;51.960;8.372;2022-07-23T14:25:26;30.30;60.40
20288;DHT22;10303;51.960;8.372;2022-07-23T14:27:53;30.10;60.20
20288;DHT22;10303;51.960;8.372;2022-07-23T14:30:19;30.10;60.50
20288;DHT22;10303;51.960;8.372;2022-07-23T14:32:45;30.10;60.80
20288;DHT22;10303;51.960;8.372;2022-07-23T14:35:10;29.90;60.20
20288;DHT22;10303;51.960;8.372;2022-07-23T14:37:38;29.80;60.50
20288;DHT22;10303;51.960;8.372;2022-07-23T14:40:05;29.80;59.00
20288;DHT22;10303;51.960;8.372;2022-07-23T14:42:31;29.60;60.50
20288;DHT22;10303;51.960;8.372;2022-07-23T14:44:57;29.60;62.10
20288;DHT22;10303;51.960;8.372;2022-07-23T14:47:23;29.50;60.50
20288;DHT22;10303;51.960;8.372;2022-07-23T14:49:49;29.40;62.50
20288;DHT22;10303;51.960;8.372;2022-07-23T14:52:15;29.30;61.00
20288;DHT22;10303;51.960;8.372;2022-07-23T14:54:42;29.10;61.20
20288;DHT22;10303;51.960;8.372;2022-07-23T14:57:08;29.10;61.20
20288;DHT22;10303;51.960;8.372;2022-07-23T14:59:35;28.80;62.00
20288;DHT22;10303;51.960;8.372;2022-07-23T15:02:01;28.60;60.90
20288;DHT22;10303;51.960;8.372;2022-07-23T15:04:27;28.60;61.10
20288;DHT22;10303;51.960;8.372;2022-07-23T15:06:53;28.60;62.00
20288;DHT22;10303;51.960;8.372;2022-07-23T15:09:19;28.60;61.90
20288;DHT22;10303;51.960;8.372;2022-07-23T15:11:45;28.60;63.20
20288;DHT22;10303;51.960;8.372;2022-07-23T15:14:11;28.60;62.50
20288;DHT22;10303;51.960;8.372;2022-07-23T15:16:37;28.60;61.80
20288;DHT22;10303;51.960;8.372;2022-07-23T15:19:04;28.50;61.40
20288;DHT22;10303;51.960;8.372;2022-07-23T15:21:30;28.50;62.90
20288;DHT22;10303;51.960;8.372;2022-07-23T15:23:57;28.40;63.00
20288;DHT22;10303;51.960;8.372;2022-07-23T15:26:25;28.40;63.40
20288;DHT22;10303;51.960;8.372;2022-07-23T15:28:52;28.30;61.40
20288;DHT22;10303;51.960;8.372;2022-07-23T15:31:18;28.20;61.80
20288;DHT22;10303;51.960;8.372;2022-07-23T15:33:44;28.20;62.30
20288;DHT22;10303;51.960;8.372;2022-07-23T15:36:10;28.20;63.50
20288;DHT22;10303;51.960;8.372;2022-07-23T15:38:36;28.10;63.40
20288;DHT22;10303;51.960;8.372;2022-07-23T15:41:02;28.20;63.70
20288;DHT22;10303;51.960;8.372;2022-07-23T15:43:29;28.10;63.30
20288;DHT22;10303;51.960;8.372;2022-07-23T15:45:56;28.10;63.90
20288;DHT22;10303;51.960;8.372;2022-07-23T15:48:23;28.10;65.50
20288;DHT22;10303;51.960;8.372;2022-07-23T15:50:49;28.10;64.70
20288;DHT22;10303;51.960;8.372;2022-07-23T15:53:15;28.10;64.80
20288;DHT22;10303;51.960;8.372;2022-07-23T15:55:42;28.20;64.80
20288;DHT22;10303;51.960;8.372;2022-07-23T15:58:11;28.20;64.80
20288;DHT22;10303;51.960;8.372;2022-07-23T16:00:38;28.20;64.90
20288;DHT22;10303;51.960;8.372;2022-07-23T16:03:05;28.10;64.20
20288;DHT22;10303;51.960;8.372;2022-07-23T16:05:32;28.10;64.40
20288;DHT22;10303;51.960;8.372;2022-07-23T16:08:00;28.10;64.60
20288;DHT22;10303;51.960;8.372;2022-07-23T16:10:27;28.20;65.10
20288;DHT22;10303;51.960;8.372;2022-07-23T16:12:53;28.20;64.80
20288;DHT22;10303;51.960;8.372;2022-07-23T16:15:20;28.10;65.20